Time;durP1;ratioP1;P1;durP2;ratioP2;P2;SDS_P1;SDS_P2;PMS_P1;PMS_P2;Temp;Humidity;BMP_temperature;BMP_pressure;BME280_temperature;BME280_humidity;BME280_pressure;Samples;Min_cycle;Max_cycle;Signal;HPM_P1;HPM_P2
2023/06/06 00:00:16;;;;;;;69.10;5.40;;;17.50;1.00;;;;;;4886565;29;20410;-81
2023/06/06 00:02:44;;;;;;;70.40;5.37;;;17.30;1.00;;;;;;4886252;29;20400;-81
2023/06/06 00:05:14;;;;;;;69.30;4.90;;;17.20;1.00;;;;;;4886367;29;20410;-81
2023/06/06 00:07:42;;;;;;;68.67;5.73;;;17.20;1.00;;;;;;4886031;29;20428;-81
2023/06/06 00:10:09;;;;;;;69.47;5.30;;;17.30;1.00;;;;;;4885953;29;20904;-81
2023/06/06 00:12:35;;;;;;;68.63;5.17;;;17.30;1.00;;;;;;4886114;29;20842;-81
2023/06/06 00:15:01;;;;;;;67.47;4.70;;;17.40;1.00;;;;;;4885577;29;20442;-81
2023/06/06 00:17:27;;;;;;;72.87;5.20;;;17.60;1.00;;;;;;4884928;29;20266;-81
2023/06/06 00:19:53;;;;;;;68.83;5.40;;;17.50;1.00;;;;;;4884742;29;20171;-81
2023/06/06 00:22:22;;;;;;;69.40;4.90;;;17.50;1.00;;;;;;4884693;29;20408;-81
2023/06/06 00:24:48;;;;;;;73.03;5.23;;;17.30;1.00;;;;;;4884923;29;20911;-81
2023/06/06 00:27:14;;;;;;;67.67;4.93;;;17.30;1.00;;;;;;4885420;29;20438;-81
2023/06/06 00:29:40;;;;;;;68.87;5.70;;;17.30;1.00;;;;;;4884031;29;20423;-81
2023/06/06 00:32:05;;;;;;;68.63;5.33;;;17.30;1.00;;;;;;4885294;29;20234;-81
2023/06/06 00:34:31;;;;;;;69.30;5.00;;;17.20;1.00;;;;;;4884496;29;20245;-81
2023/06/06 00:36:57;;;;;;;70.53;5.80;;;17.20;1.00;;;;;;4885343;29;20470;-83
2023/06/06 00:39:22;;;;;;;69.77;5.20;;;17.10;1.00;;;;;;4885265;29;20191;-83
2023/06/06 00:41:48;;;;;;;68.07;5.50;;;17.10;1.00;;;;;;4885162;29;20213;-81
2023/06/06 00:44:14;;;;;;;70.00;5.37;;;17.00;1.00;;;;;;4886102;29;20202;-81
2023/06/06 00:46:41;;;;;;;69.70;5.63;;;17.10;1.00;;;;;;4885336;29;20194;-81
2023/06/06 00:49:11;;;;;;;69.33;5.47;;;17.30;1.00;;;;;;4884931;29;20414;-81
2023/06/06 00:51:37;;;;;;;68.87;5.07;;;17.10;1.00;;;;;;4885128;29;20919;-81
2023/06/06 00:54:06;;;;;;;71.40;5.57;;;16.90;1.00;;;;;;4885226;29;20412;-81
2023/06/06 00:56:36;;;;;;;72.13;5.67;;;16.80;1.00;;;;;;4883464;29;20946;-81
2023/06/06 00:59:03;;;;;;;67.40;5.40;;;16.70;1.00;;;;;;4884928;29;20407;-81
2023/06/06 01:01:33;;;;;;;69.37;5.40;;;16.80;1.00;;;;;;4886036;29;20911;-81
2023/06/06 01:04:02;;;;;;;68.07;5.93;;;16.80;1.00;;;;;;4886238;29;20963;-81
2023/06/06 01:06:33;;;;;;;74.70;7.80;;;16.60;1.00;;;;;;4885326;29;20438;-81
2023/06/06 01:09:01;;;;;;;69.20;7.50;;;16.50;1.00;;;;;;4885408;29;20395;-81
2023/06/06 01:11:35;;;;;;;69.00;8.10;;;16.50;1.00;;;;;;4885109;29;20411;-81
2023/06/06 01:14:09;;;;;;;71.07;9.07;;;16.30;1.00;;;;;;4884824;29;20391;-81
2023/06/06 01:16:36;;;;;;;70.13;9.90;;;16.20;2.20;;;;;;4884459;29;20467;-82
2023/06/06 01:19:04;;;;;;;72.57;8.87;;;16.30;1.70;;;;;;4884167;29;20909;-81
2023/06/06 01:21:51;;;;;;;68.77;9.10;;;16.20;8.60;;;;;;4883437;29;20931;-81
2023/06/06 01:24:19;;;;;;;70.57;10.10;;;16.10;10.40;;;;;;4884941;29;20399;-81
2023/06/06 01:26:45;;;;;;;70.67;11.03;;;16.10;11.60;;;;;;4883244;29;20439;-81
2023/06/06 01:29:10;;;;;;;68.87;10.40;;;16.10;11.00;;;;;;4884938;29;20415;-81
2023/06/06 01:31:42;;;;;;;70.57;10.97;;;16.20;11.20;;;;;;4883333;29;20270;-81
2023/06/06 01:34:18;;;;;;;69.90;10.93;;;16.20;13.00;;;;;;4884059;29;20187;-81
2023/06/06 01:37:09;;;;;;;72.50;10.30;;;16.20;10.60;;;;;;4883478;29;20517;-81
2023/06/06 01:39:43;;;;;;;72.03;10.00;;;16.10;14.20;;;;;;4878508;29;20961;-83
2023/06/06 01:42:10;;;;;;;73.10;9.77;;;16.20;10.00;;;;;;4884350;29;20384;-84
2023/06/06 01:44:37;;;;;;;70.90;11.60;;;16.30;9.60;;;;;;4884058;29;20404;-83
2023/06/06 01:47:04;;;;;;;69.57;9.90;;;16.30;8.50;;;;;;4883819;29;20455;-83
2023/06/06 01:49:30;;;;;;;71.90;10.77;;;16.30;11.70;;;;;;4884608;29;20416;-84
2023/06/06 01:51:56;;;;;;;70.97;11.00;;;16.20;23.00;;;;;;4884310;29;20415;-84
2023/06/06 01:54:22;;;;;;;70.10;9.83;;;16.00;28.90;;;;;;4884327;29;20415;-83
2023/06/06 01:56:48;;;;;;;73.80;10.27;;;15.90;31.10;;;;;;4884295;29;20215;-83
2023/06/06 01:59:14;;;;;;;70.70;9.97;;;15.90;29.70;;;;;;4882838;29;20859;-83
2023/06/06 02:01:40;;;;;;;74.57;12.00;;;15.70;36.90;;;;;;4882868;29;20412;-84
2023/06/06 02:04:06;;;;;;;69.77;10.70;;;15.60;43.70;;;;;;4884405;29;20987;-84
2023/06/06 02:06:32;;;;;;;69.13;10.17;;;15.60;45.60;;;;;;4882009;29;20206;-83
2023/06/06 02:08:58;;;;;;;71.40;12.20;;;15.50;47.60;;;;;;4884349;29;20298;-83
2023/06/06 02:11:28;;;;;;;72.93;10.83;;;15.50;47.70;;;;;;4884070;29;20458;-83
2023/06/06 02:13:57;;;;;;;69.33;11.27;;;15.60;44.80;;;;;;4883840;29;20154;-84
2023/06/06 02:16:23;;;;;;;75.80;12.70;;;15.60;46.50;;;;;;4883794;29;20491;-84
2023/06/06 02:18:49;;;;;;;71.30;11.67;;;15.60;44.10;;;;;;4884015;29;20491;-83
2023/06/06 02:21:15;;;;;;;72.47;14.07;;;15.60;44.60;;;;;;4883684;29;20411;-84
2023/06/06 02:23:41;;;;;;;75.10;16.07;;;15.40;48.70;;;;;;4884151;29;20414;-84
2023/06/06 02:26:06;;;;;;;71.70;15.67;;;15.30;51.80;;;;;;4883469;29;20186;-83
2023/06/06 02:28:32;;;;;;;73.90;17.77;;;15.30;56.50;;;;;;4883835;29;20203;-83
2023/06/06 02:30:58;;;;;;;77.47;18.77;;;15.20;61.50;;;;;;4883348;29;20175;-83
2023/06/06 02:33:23;;;;;;;74.70;15.97;;;15.20;63.30;;;;;;4881829;29;20212;-83
2023/06/06 02:35:52;;;;;;;72.73;16.90;;;15.30;60.90;;;;;;4883512;29;20193;-83
2023/06/06 02:38:18;;;;;;;76.20;20.23;;;15.40;56.00;;;;;;4883072;29;20183;-83
2023/06/06 02:40:43;;;;;;;73.97;19.90;;;15.30;58.90;;;;;;4883404;29;20457;-83
2023/06/06 02:43:09;;;;;;;72.07;19.13;;;15.20;61.00;;;;;;4883117;29;20174;-83
2023/06/06 02:45:35;;;;;;;77.40;23.37;;;15.10;65.40;;;;;;4882775;29;20176;-83
2023/06/06 02:48:00;;;;;;;78.03;23.00;;;15.10;70.10;;;;;;4882614;29;20209;-83
2023/06/06 02:50:28;;;;;;;75.60;25.57;;;15.00;74.00;;;;;;4885677;29;20425;-83
2023/06/06 02:52:55;;;;;;;76.10;25.67;;;15.00;77.40;;;;;;4887019;29;20174;-83
2023/06/06 02:55:20;;;;;;;78.10;27.17;;;15.00;77.70;;;;;;5153827;23;20499;-84
2023/06/06 02:57:50;;;;;;;79.90;30.10;;;15.00;79.40;;;;;;5142086;23;20499;-84
2023/06/06 03:00:16;;;;;;;79.30;28.33;;;15.00;80.90;;;;;;4868308;29;20391;-84
2023/06/06 03:02:41;;;;;;;76.13;26.93;;;15.00;82.10;;;;;;4867609;29;20487;-84
2023/06/06 03:05:07;;;;;;;77.30;28.70;;;15.00;78.90;;;;;;4867957;29;20170;-84
2023/06/06 03:07:33;;;;;;;78.40;30.20;;;15.00;78.80;;;;;;4865915;29;20199;-84
2023/06/06 03:09:59;;;;;;;86.20;36.00;;;14.90;87.70;;;;;;4866608;29;20802;-84
2023/06/06 03:12:24;;;;;;;76.87;30.27;;;14.80;91.10;;;;;;4867309;29;20534;-84
2023/06/06 03:14:50;;;;;;;78.03;33.57;;;14.80;91.20;;;;;;4867265;29;20182;-84
2023/06/06 03:17:15;;;;;;;80.73;33.87;;;14.70;92.30;;;;;;4867527;29;20210;-84
2023/06/06 03:19:42;;;;;;;79.77;32.50;;;14.80;93.30;;;;;;4867575;29;20214;-84
2023/06/06 03:22:08;;;;;;;78.87;34.43;;;14.70;91.90;;;;;;4867626;29;20170;-84
2023/06/06 03:24:35;;;;;;;82.93;31.90;;;14.70;91.10;;;;;;4867030;29;20478;-84
2023/06/06 03:27:03;;;;;;;81.00;33.60;;;14.80;90.60;;;;;;4881147;29;20197;-84
2023/06/06 03:29:29;;;;;;;84.30;36.00;;;14.70;92.20;;;;;;4867134;29;20423;-84
2023/06/06 03:31:55;;;;;;;78.73;34.50;;;14.60;94.50;;;;;;4866619;29;20486;-84
2023/06/06 03:34:20;;;;;;;82.30;43.20;;;14.60;94.60;;;;;;4866650;29;20182;-84
2023/06/06 03:36:46;;;;;;;88.00;43.60;;;14.60;95.50;;;;;;4866874;29;20209;-84
2023/06/06 03:39:12;;;;;;;80.13;40.20;;;14.70;95.30;;;;;;4867118;29;20184;-84
2023/06/06 03:41:41;;;;;;;84.47;41.90;;;14.70;93.30;;;;;;4866820;29;20186;-84
2023/06/06 03:44:06;;;;;;;86.07;41.57;;;14.60;96.40;;;;;;4866720;29;20422;-83
2023/06/06 03:46:34;;;;;;;85.87;41.40;;;14.70;96.60;;;;;;4866951;29;20432;-84
2023/06/06 03:49:00;;;;;;;81.83;37.07;;;14.70;96.30;;;;;;4866807;29;20188;-84
2023/06/06 03:51:26;;;;;;;82.70;36.27;;;14.70;98.50;;;;;;4937047;23;20489;-80
2023/06/06 03:53:51;;;;;;;84.43;37.63;;;14.60;98.30;;;;;;4884952;29;20401;-81
2023/06/06 03:56:17;;;;;;;81.10;40.97;;;14.60;99.20;;;;;;4883854;29;20203;-81
2023/06/06 03:58:43;;;;;;;85.97;45.47;;;14.50;99.90;;;;;;4884271;29;20173;-81
2023/06/06 04:01:10;;;;;;;82.70;40.67;;;14.60;99.90;;;;;;4882642;29;20166;-79
2023/06/06 04:03:37;;;;;;;82.70;41.07;;;14.60;99.90;;;;;;4883308;29;20411;-79
2023/06/06 04:06:07;;;;;;;82.00;37.97;;;14.70;99.90;;;;;;4883337;29;20778;-80
2023/06/06 04:08:33;;;;;;;82.87;39.20;;;14.70;99.90;;;;;;4882170;29;20441;-80
2023/06/06 04:10:58;;;;;;;84.40;38.60;;;14.70;99.90;;;;;;4883518;29;20422;-79
2023/06/06 04:13:25;;;;;;;83.40;43.07;;;14.80;99.90;;;;;;4883246;29;20176;-79
2023/06/06 04:15:51;;;;;;;86.27;48.97;;;14.90;99.90;;;;;;4883483;29;20206;-79
2023/06/06 04:18:17;;;;;;;88.37;41.37;;;15.00;99.90;;;;;;4882874;29;20495;-80
2023/06/06 04:20:44;;;;;;;84.00;39.50;;;15.00;99.90;;;;;;4881772;29;20209;-79
2023/06/06 04:23:10;;;;;;;82.57;39.87;;;15.00;99.90;;;;;;4881804;29;20209;-80
2023/06/06 04:25:35;;;;;;;82.37;40.17;;;15.10;99.90;;;;;;4881960;29;20412;-80
2023/06/06 04:28:01;;;;;;;80.60;37.40;;;15.10;99.90;;;;;;4882688;29;20191;-79
2023/06/06 04:30:29;;;;;;;85.17;44.27;;;15.20;99.90;;;;;;4881606;29;20553;-79
2023/06/06 04:32:56;;;;;;;83.70;41.57;;;15.20;99.90;;;;;;4881342;29;20181;-80
2023/06/06 04:35:22;;;;;;;85.17;49.73;;;15.20;99.90;;;;;;4883098;29;20502;-79
2023/06/06 04:37:50;;;;;;;86.77;47.30;;;15.30;99.90;;;;;;4881331;29;20872;-79
2023/06/06 04:40:16;;;;;;;89.20;56.57;;;15.60;99.90;;;;;;4881460;29;20923;-80
2023/06/06 04:42:41;;;;;;;86.97;55.00;;;15.90;99.90;;;;;;4881339;29;20415;-79
2023/06/06 04:45:08;;;;;;;84.83;39.77;;;16.30;97.30;;;;;;4881739;29;20492;-79
2023/06/06 04:47:37;;;;;;;75.20;19.20;;;16.70;92.90;;;;;;4882572;29;20194;-80
2023/06/06 04:50:04;;;;;;;79.47;16.77;;;17.10;87.00;;;;;;4882362;29;20426;-80
2023/06/06 04:52:29;;;;;;;76.27;14.37;;;17.40;76.50;;;;;;4882133;29;20800;-79
2023/06/06 04:54:55;;;;;;;74.40;14.00;;;17.60;61.30;;;;;;4882435;29;20407;-79
2023/06/06 04:57:21;;;;;;;75.67;11.60;;;17.90;58.40;;;;;;4880760;29;20761;-79
2023/06/06 04:59:56;;;;;;;73.03;11.70;;;18.10;52.10;;;;;;4882301;29;20177;-80
2023/06/06 05:02:28;;;;;;;77.63;12.90;;;18.20;49.00;;;;;;4882642;29;20409;-80
2023/06/06 05:04:55;;;;;;;75.00;14.33;;;18.40;39.00;;;;;;4881059;29;20414;-79
2023/06/06 05:07:23;;;;;;;75.20;13.43;;;18.40;36.50;;;;;;4882483;29;20899;-79
2023/06/06 05:09:50;;;;;;;77.90;15.97;;;18.30;32.00;;;;;;4880832;29;20412;-80
2023/06/06 05:12:15;;;;;;;73.90;15.77;;;18.20;35.50;;;;;;4882200;29;20502;-79
2023/06/06 05:14:41;;;;;;;77.60;19.03;;;18.10;37.70;;;;;;4882421;29;20446;-80
2023/06/06 05:17:07;;;;;;;77.40;17.87;;;17.90;46.60;;;;;;4881942;29;20205;-79
2023/06/06 05:19:32;;;;;;;80.23;19.70;;;17.80;48.90;;;;;;4881960;29;20686;-80
2023/06/06 05:21:58;;;;;;;77.87;17.60;;;17.70;53.20;;;;;;4882892;29;20657;-80
2023/06/06 05:24:23;;;;;;;77.47;19.97;;;17.70;51.90;;;;;;4881708;29;20659;-80
2023/06/06 05:26:49;;;;;;;78.17;20.70;;;17.70;51.50;;;;;;4882763;29;20559;-80
2023/06/06 05:29:15;;;;;;;77.50;17.97;;;17.50;57.50;;;;;;4882852;29;20171;-80
2023/06/06 05:31:41;;;;;;;73.70;15.00;;;17.50;57.10;;;;;;4883000;29;20941;-80
2023/06/06 05:34:06;;;;;;;80.27;21.73;;;17.60;56.20;;;;;;4882663;29;20635;-80
2023/06/06 05:36:32;;;;;;;79.57;22.00;;;17.40;64.40;;;;;;4882424;29;20206;-80
2023/06/06 05:38:59;;;;;;;80.40;21.73;;;17.40;69.80;;;;;;4882822;29;20163;-80
2023/06/06 05:41:25;;;;;;;78.20;21.43;;;17.20;77.40;;;;;;4882634;29;20163;-80
2023/06/06 05:43:51;;;;;;;78.47;25.13;;;17.30;74.50;;;;;;4882522;29;20753;-80
2023/06/06 05:46:17;;;;;;;83.33;29.23;;;17.30;73.50;;;;;;4882087;29;20419;-80
2023/06/06 05:48:43;;;;;;;80.40;31.93;;;17.20;75.80;;;;;;4882550;29;20506;-80
2023/06/06 05:51:08;;;;;;;80.70;27.17;;;17.20;79.60;;;;;;4882462;29;20443;-80
2023/06/06 05:53:35;;;;;;;81.83;30.00;;;17.20;78.30;;;;;;4882618;29;20167;-80
2023/06/06 05:56:01;;;;;;;80.60;30.37;;;17.20;81.00;;;;;;4882456;29;20555;-79
2023/06/06 05:58:26;;;;;;;81.40;31.13;;;17.20;81.10;;;;;;4882200;29;20415;-80
2023/06/06 06:00:52;;;;;;;78.93;27.43;;;17.20;86.70;;;;;;4882375;29;20190;-80
2023/06/06 06:03:18;;;;;;;86.67;36.83;;;17.30;84.30;;;;;;4882707;29;20166;-80
2023/06/06 06:05:44;;;;;;;79.07;26.20;;;17.20;88.00;;;;;;4882079;29;20202;-80
2023/06/06 06:08:10;;;;;;;81.07;29.77;;;17.30;82.50;;;;;;4882165;29;20186;-80
2023/06/06 06:10:37;;;;;;;86.87;33.37;;;17.20;84.90;;;;;;4881130;29;20478;-80
2023/06/06 06:13:05;;;;;;;81.53;31.90;;;17.20;87.70;;;;;;4882025;29;20411;-80
2023/06/06 06:15:31;;;;;;;82.80;22.40;;;17.30;90.70;;;;;;4881051;29;20440;-80
2023/06/06 06:17:57;;;;;;;78.90;20.50;;;17.50;80.40;;;;;;4881937;29;20467;-80
2023/06/06 06:20:23;;;;;;;80.70;18.47;;;17.60;73.80;;;;;;4882224;29;20388;-80
2023/06/06 06:22:49;;;;;;;77.40;19.40;;;17.70;67.20;;;;;;4881789;29;20171;-80
2023/06/06 06:25:17;;;;;;;82.77;22.70;;;17.70;74.90;;;;;;4888564;29;20197;-80
2023/06/06 06:27:45;;;;;;;78.10;20.80;;;17.50;73.90;;;;;;4888035;29;20470;-81
2023/06/06 06:30:12;;;;;;;79.90;20.80;;;17.60;73.80;;;;;;4886557;29;20407;-80
2023/06/06 06:32:40;;;;;;;83.60;17.50;;;17.70;74.10;;;;;;4888317;29;20495;-80
2023/06/06 06:35:06;;;;;;;79.63;20.67;;;17.80;66.20;;;;;;4887167;29;20939;-80
2023/06/06 06:37:36;;;;;;;81.33;19.73;;;17.70;70.00;;;;;;4886737;29;20458;-81
2023/06/06 06:40:05;;;;;;;82.03;17.90;;;17.80;67.00;;;;;;4888720;29;20403;-80
2023/06/06 06:42:31;;;;;;;77.33;14.37;;;17.80;65.70;;;;;;4888379;29;20447;-80
2023/06/06 06:44:56;;;;;;;76.00;14.37;;;17.90;59.40;;;;;;4887878;29;20403;-81
2023/06/06 06:47:22;;;;;;;76.00;15.30;;;17.90;56.20;;;;;;4886755;29;20202;-81
2023/06/06 06:49:48;;;;;;;77.10;13.73;;;18.00;59.60;;;;;;4886827;29;20174;-80
2023/06/06 06:52:17;;;;;;;77.20;13.97;;;18.10;56.80;;;;;;4887933;29;20274;-80
2023/06/06 06:54:53;;;;;;;75.90;14.30;;;18.10;56.20;;;;;;4888268;29;20423;-81
2023/06/06 06:57:20;;;;;;;95.37;16.47;;;18.20;57.10;;;;;;4886803;29;20466;-81
2023/06/06 06:59:46;;;;;;;76.77;15.80;;;18.20;54.00;;;;;;4887858;29;20426;-81
2023/06/06 07:02:11;;;;;;;78.93;14.57;;;18.30;52.70;;;;;;4887756;29;20769;-80
2023/06/06 07:04:39;;;;;;;76.37;16.20;;;18.40;53.80;;;;;;4886911;29;20606;-80
2023/06/06 07:07:06;;;;;;;78.07;16.00;;;18.30;54.40;;;;;;4888148;29;20266;-80
2023/06/06 07:09:32;;;;;;;76.23;14.53;;;18.40;50.60;;;;;;4888285;29;20415;-81
2023/06/06 07:11:57;;;;;;;77.57;15.37;;;18.40;55.00;;;;;;4887964;29;20848;-81
2023/06/06 07:14:25;;;;;;;74.10;14.60;;;18.50;50.30;;;;;;4887655;29;20195;-80
2023/06/06 07:16:51;;;;;;;81.10;15.07;;;18.60;51.00;;;;;;4887860;29;20198;-80
2023/06/06 07:19:17;;;;;;;75.73;14.80;;;18.60;47.80;;;;;;4886523;29;20792;-81
2023/06/06 07:21:43;;;;;;;78.40;15.47;;;18.50;46.80;;;;;;4888000;29;20167;-80
2023/06/06 07:24:09;;;;;;;82.93;16.23;;;18.50;53.80;;;;;;4887632;29;20439;-81
2023/06/06 07:26:35;;;;;;;77.00;14.30;;;18.60;47.40;;;;;;4886361;29;20196;-80
2023/06/06 07:29:01;;;;;;;78.17;16.70;;;18.60;46.10;;;;;;4886701;29;20690;-80
2023/06/06 07:31:27;;;;;;;74.77;14.80;;;18.60;46.50;;;;;;4887982;29;20441;-80
2023/06/06 07:33:53;;;;;;;77.17;14.83;;;18.50;41.20;;;;;;4886572;29;20178;-80
2023/06/06 07:36:18;;;;;;;77.27;15.40;;;18.50;44.00;;;;;;4882872;29;20447;-80
2023/06/06 07:38:44;;;;;;;82.47;15.87;;;18.60;38.70;;;;;;4884792;29;20639;-80
2023/06/06 07:41:10;;;;;;;76.40;17.70;;;18.60;34.20;;;;;;4884410;29;20245;-80
2023/06/06 07:43:36;;;;;;;79.47;18.60;;;18.70;42.30;;;;;;4885107;29;20246;-80
2023/06/06 07:46:02;;;;;;;81.23;17.90;;;18.80;34.20;;;;;;4884396;29;20450;-80
2023/06/06 07:48:30;;;;;;;79.10;17.57;;;18.80;35.70;;;;;;4884787;29;20546;-80
2023/06/06 07:50:56;;;;;;;81.87;18.00;;;18.80;32.40;;;;;;4884604;29;20249;-80
2023/06/06 07:53:21;;;;;;;78.67;18.90;;;18.90;29.10;;;;;;4884321;29;20872;-80
2023/06/06 07:55:48;;;;;;;76.50;18.17;;;19.00;30.50;;;;;;4884378;29;20412;-81
2023/06/06 07:58:13;;;;;;;82.53;19.90;;;19.10;23.70;;;;;;4883382;29;20198;-81
2023/06/06 08:00:40;;;;;;;80.80;19.17;;;19.10;19.70;;;;;;4884384;29;20399;-80
2023/06/06 08:03:07;;;;;;;77.87;19.47;;;19.10;21.80;;;;;;4884653;29;20539;-80
2023/06/06 08:05:34;;;;;;;78.27;17.73;;;19.10;17.20;;;;;;4884127;29;20435;-80
2023/06/06 08:08:00;;;;;;;76.03;16.97;;;19.10;13.40;;;;;;4884709;29;20425;-80
2023/06/06 08:10:27;;;;;;;78.07;18.27;;;19.10;20.60;;;;;;4884682;29;20412;-81
2023/06/06 08:12:52;;;;;;;79.10;18.80;;;19.30;21.40;;;;;;4883163;29;20494;-80
2023/06/06 08:15:18;;;;;;;80.40;17.73;;;19.40;18.50;;;;;;4882648;29;20448;-81
2023/06/06 08:17:47;;;;;;;75.57;16.70;;;19.40;14.90;;;;;;4884529;29;20203;-80
2023/06/06 08:20:12;;;;;;;75.10;16.90;;;19.40;13.50;;;;;;4884193;29;20174;-80
2023/06/06 08:22:47;;;;;;;77.47;14.20;;;19.40;15.20;;;;;;4884217;29;20812;-80
2023/06/06 08:25:13;;;;;;;76.60;13.17;;;19.50;8.50;;;;;;4884166;29;20157;-80
2023/06/06 08:27:38;;;;;;;79.23;14.07;;;19.60;6.60;;;;;;4883861;29;20518;-81
2023/06/06 08:30:05;;;;;;;78.37;14.60;;;19.70;9.30;;;;;;4883992;29;20407;-80
2023/06/06 08:32:33;;;;;;;75.83;14.97;;;19.80;2.20;;;;;;4883701;29;20168;-80
2023/06/06 08:34:58;;;;;;;76.60;13.37;;;19.70;1.30;;;;;;4882181;29;20419;-80
2023/06/06 08:37:24;;;;;;;75.70;13.33;;;19.80;1.00;;;;;;4883511;29;20505;-80
2023/06/06 08:39:50;;;;;;;75.37;12.60;;;19.70;1.00;;;;;;4882506;29;20325;-80
2023/06/06 08:42:20;;;;;;;76.50;11.73;;;19.80;1.30;;;;;;4882775;29;20683;-80
2023/06/06 08:44:46;;;;;;;74.77;13.27;;;20.00;1.00;;;;;;4884148;29;20488;-80
2023/06/06 08:47:13;;;;;;;75.53;10.50;;;20.10;1.00;;;;;;4883239;29;20434;-80
2023/06/06 08:49:39;;;;;;;74.80;10.50;;;20.20;1.00;;;;;;4883933;29;20413;-80
2023/06/06 08:52:06;;;;;;;78.90;12.43;;;20.10;1.00;;;;;;4883464;29;20443;-80
2023/06/06 08:54:32;;;;;;;75.37;11.33;;;20.20;1.00;;;;;;4883341;29;20416;-80
2023/06/06 08:57:07;;;;;;;75.80;11.70;;;20.20;1.00;;;;;;4883600;29;20469;-80
2023/06/06 08:59:42;;;;;;;77.10;10.40;;;20.30;1.00;;;;;;4882311;29;20737;-80
2023/06/06 09:02:08;;;;;;;74.63;10.80;;;20.40;1.00;;;;;;4881948;29;20414;-79
2023/06/06 09:04:34;;;;;;;75.37;10.30;;;20.70;1.00;;;;;;4883924;29;20409;-80
2023/06/06 09:07:14;;;;;;;75.00;12.57;;;20.80;1.00;;;;;;4883001;29;20424;-80
2023/06/06 09:09:42;;;;;;;78.60;11.63;;;20.90;1.00;;;;;;4882479;29;20411;-80
2023/06/06 09:12:09;;;;;;;75.53;11.47;;;20.90;1.00;;;;;;4883447;29;20466;-80
2023/06/06 09:14:35;;;;;;;84.97;11.60;;;21.10;1.00;;;;;;4882108;29;20420;-80
2023/06/06 09:17:02;;;;;;;76.40;12.43;;;21.20;1.00;;;;;;4882911;29;20490;-80
2023/06/06 09:19:30;;;;;;;75.33;12.17;;;21.30;1.00;;;;;;4881968;29;20415;-80
2023/06/06 09:21:59;;;;;;;74.50;11.40;;;21.40;1.00;;;;;;4883200;29;20409;-80
2023/06/06 09:24:27;;;;;;;74.63;12.43;;;21.50;1.00;;;;;;4882869;29;20491;-80
2023/06/06 09:26:52;;;;;;;77.97;13.50;;;21.70;1.00;;;;;;4883469;29;20427;-80
2023/06/06 09:29:18;;;;;;;78.00;11.97;;;21.90;1.00;;;;;;4882770;29;20419;-80
2023/06/06 09:31:44;;;;;;;76.37;11.37;;;22.00;1.00;;;;;;4883717;29;20628;-80
2023/06/06 09:34:10;;;;;;;77.87;10.87;;;22.00;1.00;;;;;;4883391;29;20171;-80
2023/06/06 09:36:43;;;;;;;74.50;9.40;;;22.00;1.00;;;;;;4881690;29;20210;-80
2023/06/06 09:39:11;;;;;;;73.57;10.33;;;22.20;1.00;;;;;;4882874;29;20922;-80
2023/06/06 09:41:45;;;;;;;75.13;11.30;;;22.30;1.00;;;;;;4881857;29;20414;-80
2023/06/06 09:44:20;;;;;;;79.23;9.30;;;22.50;1.00;;;;;;4880894;29;20459;-80
2023/06/06 09:46:57;;;;;;;73.27;9.63;;;22.70;1.00;;;;;;4882659;29;20465;-80
2023/06/06 09:49:22;;;;;;;76.50;8.53;;;22.90;1.00;;;;;;4881077;29;20426;-80
2023/06/06 09:51:51;;;;;;;72.73;8.40;;;23.10;1.00;;;;;;4962187;23;20483;-82
2023/06/06 09:54:27;;;;;;;73.03;8.73;;;23.10;1.00;;;;;;4885128;29;20170;-82
2023/06/06 09:56:55;;;;;;;74.83;8.10;;;23.20;1.00;;;;;;4898222;29;20455;-82
2023/06/06 09:59:24;;;;;;;74.00;8.97;;;23.20;1.00;;;;;;4883079;29;20407;-80
2023/06/06 10:01:55;;;;;;;91.93;33.93;;;23.30;1.00;;;;;;4882980;29;20412;-80
2023/06/06 10:04:25;;;;;;;74.30;8.10;;;23.40;1.00;;;;;;4883341;29;20395;-80
2023/06/06 10:06:53;;;;;;;78.40;7.43;;;23.70;1.00;;;;;;4883971;29;20442;-80
2023/06/06 10:09:22;;;;;;;74.87;7.30;;;23.90;1.00;;;;;;4883061;29;20411;-80
2023/06/06 10:11:49;;;;;;;82.37;8.47;;;24.20;1.00;;;;;;4882178;29;20447;-83
2023/06/06 10:14:15;;;;;;;72.40;7.50;;;24.40;1.00;;;;;;4884093;29;20411;-80
2023/06/06 10:16:41;;;;;;;73.43;6.70;;;24.60;1.00;;;;;;4882321;29;20466;-80
2023/06/06 10:19:13;;;;;;;72.27;6.90;;;24.60;1.00;;;;;;4883754;29;20419;-80
2023/06/06 10:21:40;;;;;;;73.40;6.50;;;24.50;1.00;;;;;;4884085;29;20178;-81
2023/06/06 10:24:06;;;;;;;70.57;6.70;;;24.60;1.00;;;;;;4884511;29;20412;-81
2023/06/06 10:26:41;;;;;;;72.00;5.90;;;24.60;1.00;;;;;;4884745;29;20450;-81
2023/06/06 10:29:10;;;;;;;77.73;7.20;;;24.80;1.00;;;;;;4884262;29;20748;-80
2023/06/06 10:31:50;;;;;;;73.77;7.90;;;25.10;1.00;;;;;;4883353;29;20423;-80
2023/06/06 10:34:21;;;;;;;76.10;7.73;;;25.20;1.00;;;;;;4884368;29;20400;-81
2023/06/06 10:36:47;;;;;;;72.40;6.63;;;25.30;1.00;;;;;;4884312;29;20468;-81
2023/06/06 10:39:21;;;;;;;75.60;7.00;;;25.40;1.00;;;;;;4884792;29;20783;-80
2023/06/06 10:42:19;;;;;;;77.10;8.70;;;25.80;1.00;;;;;;4883802;29;20886;-81
2023/06/06 10:44:45;;;;;;;72.80;6.90;;;26.00;1.00;;;;;;4862290;29;20530;-81
2023/06/06 10:47:32;;;;;;;77.20;7.30;;;26.10;1.00;;;;;;4884088;29;20579;-80
2023/06/06 10:50:16;;;;;;;74.27;6.77;;;26.20;1.00;;;;;;4883970;29;20199;-81
2023/06/06 10:52:48;;;;;;;73.47;7.27;;;26.20;1.00;;;;;;4882885;29;20493;-81
2023/06/06 10:55:25;;;;;;;73.47;6.07;;;26.30;1.00;;;;;;4883560;29;20458;-81
2023/06/06 10:58:09;;;;;;;72.60;6.10;;;26.50;1.00;;;;;;4883333;29;20423;-81
2023/06/06 11:00:39;;;;;;;75.03;5.90;;;26.50;1.00;;;;;;4883975;29;20391;-80
2023/06/06 11:03:06;;;;;;;75.50;7.30;;;26.60;1.00;;;;;;4883126;29;20395;-80
2023/06/06 11:05:32;;;;;;;74.30;6.50;;;26.70;1.00;;;;;;4883354;29;20493;-81
2023/06/06 11:08:02;;;;;;;73.10;6.40;;;26.50;1.00;;;;;;4883397;29;20916;-81
2023/06/06 11:10:27;;;;;;;71.13;6.03;;;26.70;1.00;;;;;;4886347;29;20403;-81
2023/06/06 11:12:54;;;;;;;72.90;6.07;;;26.50;1.00;;;;;;4887425;29;20450;-81
2023/06/06 11:15:29;;;;;;;73.80;5.83;;;26.40;1.00;;;;;;4886676;29;20174;-81
2023/06/06 11:18:05;;;;;;;73.07;7.03;;;26.40;1.00;;;;;;4888232;29;21090;-81
2023/06/06 11:20:40;;;;;;;70.80;5.53;;;26.50;1.00;;;;;;4887024;29;20395;-81
2023/06/06 11:23:08;;;;;;;72.07;6.57;;;26.90;1.00;;;;;;4887005;29;20402;-81
2023/06/06 11:25:35;;;;;;;74.10;6.43;;;26.80;1.00;;;;;;4887463;29;20402;-81
2023/06/06 11:28:01;;;;;;;75.13;5.80;;;27.10;1.00;;;;;;4886642;29;20466;-81
2023/06/06 11:30:34;;;;;;;75.10;5.60;;;27.30;1.00;;;;;;4885298;29;20415;-81
2023/06/06 11:33:01;;;;;;;74.47;6.40;;;27.30;1.00;;;;;;4889333;29;20380;-81
2023/06/06 11:35:32;;;;;;;74.50;6.03;;;27.40;1.00;;;;;;4888987;29;20404;-81
2023/06/06 11:37:58;;;;;;;72.40;5.67;;;27.50;1.00;;;;;;4887522;29;20451;-81
2023/06/06 11:40:28;;;;;;;72.13;6.00;;;27.60;1.00;;;;;;4889327;29;20418;-82
2023/06/06 11:42:54;;;;;;;73.03;5.37;;;27.40;1.00;;;;;;4889452;29;20422;-82
2023/06/06 11:45:20;;;;;;;75.23;5.70;;;27.40;1.00;;;;;;4889169;29;20476;-81
2023/06/06 11:47:47;;;;;;;74.07;6.03;;;27.20;1.00;;;;;;4889803;29;20255;-81
2023/06/06 11:50:13;;;;;;;70.40;5.43;;;27.10;1.00;;;;;;4889665;29;20415;-82
2023/06/06 11:52:46;;;;;;;71.77;5.07;;;27.10;1.00;;;;;;4890072;29;20437;-81
2023/06/06 11:55:12;;;;;;;72.33;5.40;;;27.50;1.00;;;;;;4889652;29;20915;-81
2023/06/06 11:57:38;;;;;;;71.83;4.57;;;27.90;1.00;;;;;;4889774;29;20562;-81
2023/06/06 12:00:25;;;;;;;73.40;5.90;;;28.00;1.00;;;;;;4890357;29;20551;-81
2023/06/06 12:02:52;;;;;;;70.67;5.17;;;28.30;1.00;;;;;;4888810;29;20442;-81
2023/06/06 12:05:22;;;;;;;73.30;5.20;;;28.20;1.00;;;;;;4889100;29;20439;-82
2023/06/06 12:07:49;;;;;;;71.60;4.70;;;28.30;1.00;;;;;;4889362;29;20438;-81
2023/06/06 12:10:23;;;;;;;73.73;5.03;;;28.40;1.00;;;;;;4888601;29;20938;-81
2023/06/06 12:12:48;;;;;;;71.23;4.90;;;28.40;1.00;;;;;;4889561;29;20815;-82
2023/06/06 12:15:14;;;;;;;74.57;5.70;;;28.30;1.00;;;;;;4887570;29;20442;-81
2023/06/06 12:17:43;;;;;;;71.47;4.93;;;27.70;1.00;;;;;;4887915;29;20209;-81
2023/06/06 12:20:10;;;;;;;75.33;6.07;;;27.60;1.00;;;;;;4887167;29;20426;-81
2023/06/06 12:22:36;;;;;;;71.30;5.53;;;27.50;1.00;;;;;;4886589;29;20487;-81
2023/06/06 12:25:04;;;;;;;75.43;5.73;;;27.30;1.00;;;;;;4887899;29;20566;-81
2023/06/06 12:27:33;;;;;;;72.30;5.97;;;27.30;1.00;;;;;;4887461;29;20439;-81
2023/06/06 12:30:00;;;;;;;70.27;5.20;;;27.10;1.00;;;;;;4887149;29;20823;-81
2023/06/06 12:32:29;;;;;;;71.80;5.67;;;26.90;1.00;;;;;;4886707;29;20919;-81
2023/06/06 12:35:01;;;;;;;71.20;5.73;;;26.60;1.00;;;;;;4886952;29;20816;-80
2023/06/06 12:37:42;;;;;;;71.90;6.23;;;26.40;1.00;;;;;;4886575;29;20463;-81